createdAt,value
2022-11-20T00:04:40.507Z,-8.26
2022-11-20T00:09:45.349Z,-8.11
2022-11-20T00:14:48.964Z,-8.16
2022-11-20T00:19:52.648Z,-8.37
2022-11-20T00:24:58.344Z,-8.35
2022-11-20T00:30:01.882Z,-8.44
2022-11-20T00:35:06.488Z,-8.60
2022-11-20T00:40:12.524Z,-8.53
2022-11-20T00:45:16.185Z,-8.70
2022-11-20T00:50:19.650Z,-8.79
2022-11-20T00:55:24.576Z,-8.85
2022-11-20T01:00:28.109Z,-8.82
2022-11-20T01:05:35.911Z,-8.75
2022-11-20T01:10:40.937Z,-8.71
2022-11-20T01:15:44.568Z,-8.80
2022-11-20T01:20:48.187Z,-8.72
2022-11-20T01:25:53.425Z,-8.78
2022-11-20T01:30:56.991Z,-8.76
2022-11-20T01:36:06.401Z,-8.82
2022-11-20T01:41:32.307Z,-8.82
2022-11-20T01:46:38.932Z,-8.81
2022-11-20T01:51:46.389Z,-8.97
2022-11-20T01:56:56.946Z,-9.01
2022-11-20T02:02:00.743Z,-8.98
2022-11-20T02:07:07.442Z,-9.10
2022-11-20T02:12:32.937Z,-9.03
2022-11-20T02:17:36.565Z,-8.87
2022-11-20T02:22:50.767Z,-8.95
2022-11-20T02:27:56.052Z,-8.90
2022-11-20T02:33:00.167Z,-8.92
2022-11-20T02:38:04.874Z,-8.98
2022-11-20T02:43:10.637Z,-9.13
2022-11-20T02:48:14.270Z,-9.13
2022-11-20T02:53:17.778Z,-9.48
2022-11-20T02:58:22.776Z,-9.14
2022-11-20T03:03:27.814Z,-9.13
2022-11-20T03:08:31.458Z,-9.31
2022-11-20T03:13:37.336Z,-9.07
2022-11-20T03:18:41.297Z,-9.42
2022-11-20T03:23:44.982Z,-9.06
2022-11-20T03:28:51.271Z,-9.00
2022-11-20T03:33:55.219Z,-9.01
2022-11-20T03:38:59.296Z,-8.98
2022-11-20T03:44:06.742Z,-9.11
2022-11-20T03:49:10.344Z,-9.23
2022-11-20T03:54:14.017Z,-9.01
2022-11-20T03:59:19.207Z,-8.98
2022-11-20T04:04:23.084Z,-8.96
2022-11-20T04:09:26.635Z,-8.77
2022-11-20T04:14:31.638Z,-8.89
2022-11-20T04:19:35.176Z,-8.87
2022-11-20T04:24:38.702Z,-8.87
2022-11-20T04:29:43.631Z,-8.91
2022-11-20T04:34:47.222Z,-8.87
2022-11-20T04:39:50.812Z,-8.98
2022-11-20T04:44:55.862Z,-8.78
2022-11-20T04:49:59.414Z,-8.71
2022-11-20T04:55:03.051Z,-8.81
2022-11-20T05:00:09.605Z,-8.60
2022-11-20T05:05:13.335Z,-8.66
2022-11-20T05:10:17.530Z,-8.55
2022-11-20T05:15:22.440Z,-8.43
2022-11-20T05:20:26.123Z,-8.72
2022-11-20T05:25:29.853Z,-8.68
2022-11-20T05:30:34.796Z,-8.58
2022-11-20T05:35:38.335Z,-8.63
2022-11-20T05:40:41.939Z,-8.53
2022-11-20T05:45:54.396Z,-8.33
2022-11-20T05:50:59.879Z,-8.42
2022-11-20T05:56:05.459Z,-8.09
2022-11-20T06:01:12.850Z,-7.65
2022-11-20T06:06:17.757Z,-7.41
2022-11-20T06:11:21.273Z,-7.21
2022-11-20T06:16:26.267Z,-7.15
2022-11-20T06:21:30.051Z,-6.99
2022-11-20T06:26:33.789Z,-6.97
2022-11-20T06:31:39.107Z,-6.81
2022-11-20T06:36:42.501Z,-6.68
2022-11-20T06:41:46.126Z,-6.84
2022-11-20T06:46:51.214Z,-6.86
2022-11-20T06:51:54.680Z,-7.13
2022-11-20T06:56:58.372Z,-7.33
2022-11-20T07:02:03.289Z,-6.74
2022-11-20T07:07:07.285Z,-6.60
2022-11-20T07:12:11.930Z,-6.50
2022-11-20T07:17:17.961Z,-6.24
2022-11-20T07:22:22.700Z,-5.70
2022-11-20T07:27:26.182Z,-5.34
2022-11-20T07:32:31.180Z,-5.16
2022-11-20T07:37:36.532Z,-5.08
2022-11-20T07:42:40.112Z,-4.94
2022-11-20T07:47:45.248Z,-4.78
2022-11-20T07:52:49.120Z,-4.44
2022-11-20T07:57:56.645Z,-4.29
2022-11-20T08:03:01.587Z,-4.11
2022-11-20T08:08:05.537Z,-3.91
2022-11-20T08:13:28.637Z,-3.89
2022-11-20T08:18:33.663Z,-3.65
2022-11-20T08:23:37.238Z,-3.41
2022-11-20T08:28:40.878Z,-3.35
2022-11-20T08:33:45.775Z,-3.24
2022-11-20T08:38:50.306Z,-3.11
2022-11-20T08:43:55.990Z,-2.74
2022-11-20T08:49:01.292Z,-2.66
2022-11-20T08:54:06.147Z,-2.79
2022-11-20T08:59:23.326Z,-3.45
2022-11-20T09:04:34.730Z,-3.32
2022-11-20T09:09:38.371Z,-3.26
2022-11-20T09:14:41.981Z,-2.80
2022-11-20T09:19:47.169Z,-2.37
2022-11-20T09:24:50.818Z,-1.97
2022-11-20T09:29:54.446Z,-1.90
2022-11-20T09:40:09.335Z,-0.89
2022-11-20T09:45:27.055Z,-0.70
2022-11-20T09:50:35.436Z,-0.84
2022-11-20T09:55:39.931Z,-0.96
2022-11-20T10:00:43.797Z,-0.29
2022-11-20T10:05:52.450Z,-0.31
2022-11-20T10:11:04.345Z,-0.24
2022-11-20T10:16:21.266Z,-0.30
2022-11-20T10:21:34.622Z,0.14
2022-11-20T10:26:49.393Z,0.44
2022-11-20T10:31:57.988Z,0.33
2022-11-20T10:37:11.423Z,0.39
2022-11-20T10:42:23.939Z,0.06
2022-11-20T10:47:29.797Z,-0.26
2022-11-20T10:52:47.681Z,0.27
2022-11-20T10:58:03.125Z,0.27
2022-11-20T11:03:23.751Z,1.15
2022-11-20T11:08:36.707Z,0.64
2022-11-20T11:13:40.540Z,1.45
2022-11-20T11:18:44.183Z,1.44
2022-11-20T11:23:49.478Z,0.92
2022-11-20T11:28:58.223Z,1.36
2022-11-20T11:34:08.960Z,1.45
2022-11-20T11:39:18.506Z,1.70
2022-11-20T11:44:42.954Z,1.63
2022-11-20T11:49:46.952Z,1.72
2022-11-20T11:54:55.740Z,1.98
2022-11-20T12:00:05.778Z,2.20
2022-11-20T12:05:21.868Z,1.87
2022-11-20T12:10:40.357Z,2.09
2022-11-20T12:15:48.399Z,2.28
2022-11-20T12:21:05.925Z,2.58
2022-11-20T12:26:20.479Z,2.39
2022-11-20T12:31:46.675Z,2.19
2022-11-20T12:36:57.434Z,2.48
2022-11-20T12:42:38.735Z,2.51
2022-11-20T12:48:00.996Z,2.27
2022-11-20T12:53:08.268Z,2.20
2022-11-20T12:58:26.799Z,1.90
2022-11-20T13:03:45.388Z,2.17
2022-11-20T13:08:55.617Z,2.05
2022-11-20T13:14:26.596Z,1.99
2022-11-20T13:19:30.675Z,1.43
2022-11-20T13:24:34.910Z,1.22
2022-11-20T13:29:47.719Z,1.22
2022-11-20T13:34:56.362Z,1.26
2022-11-20T13:40:24.106Z,1.24
2022-11-20T13:45:34.110Z,1.10
2022-11-20T13:50:50.767Z,1.09
2022-11-20T13:56:01.172Z,1.10
2022-11-20T14:01:13.151Z,1.15
2022-11-20T14:06:28.308Z,0.86
2022-11-20T14:11:34.417Z,1.06
2022-11-20T14:16:40.112Z,0.94
2022-11-20T14:21:43.872Z,1.03
2022-11-20T14:26:48.500Z,1.01
2022-11-20T14:31:56.313Z,0.98
2022-11-20T14:37:01.965Z,0.79
2022-11-20T14:42:16.727Z,0.57
2022-11-20T14:47:24.412Z,0.60
2022-11-20T14:52:32.135Z,0.54
2022-11-20T14:57:37.776Z,0.36
2022-11-20T15:02:43.942Z,0.18
2022-11-20T15:07:49.500Z,-0.12
2022-11-20T15:12:55.132Z,-0.08
2022-11-20T15:18:00.651Z,-0.33
2022-11-20T15:23:04.165Z,-0.76
2022-11-20T15:28:18.078Z,-0.68
2022-11-20T15:33:23.074Z,-0.83
2022-11-20T15:38:26.805Z,-0.97
2022-11-20T15:43:30.424Z,-0.73
2022-11-20T15:48:42.051Z,-0.76
2022-11-20T15:53:49.890Z,-0.94
2022-11-20T15:58:54.080Z,-0.62
2022-11-20T16:03:59.161Z,-0.95
2022-11-20T16:09:02.747Z,-0.60
2022-11-20T16:14:24.377Z,-0.49
2022-11-20T16:19:29.791Z,-0.32
2022-11-20T16:24:33.420Z,-0.36
2022-11-20T16:29:36.937Z,-0.14
2022-11-20T16:34:41.904Z,-0.11
2022-11-20T16:39:45.374Z,0.03
2022-11-20T16:44:49.084Z,-0.06
2022-11-20T16:49:54.225Z,-0.07
2022-11-20T16:54:57.890Z,-0.10
2022-11-20T17:00:02.674Z,0.04
2022-11-20T17:05:08.615Z,0.07
2022-11-20T17:10:12.204Z,0.16
2022-11-20T17:15:15.820Z,-0.01
2022-11-20T17:20:20.798Z,0.09
2022-11-20T17:25:24.476Z,0.11
2022-11-20T17:30:28.127Z,0.37
2022-11-20T17:35:33.148Z,0.39
2022-11-20T17:40:36.906Z,0.12
2022-11-20T17:45:40.588Z,0.18
2022-11-20T17:50:45.521Z,0.34
2022-11-20T17:56:13.872Z,0.18
2022-11-20T18:01:18.825Z,0.23
2022-11-20T18:06:25.647Z,0.38
2022-11-20T18:11:33.697Z,-0.05
2022-11-20T18:16:42.813Z,0.26
2022-11-20T18:21:48.089Z,0.40
2022-11-20T18:26:51.840Z,0.44
2022-11-20T18:31:55.766Z,0.29
2022-11-20T18:37:00.925Z,0.13
2022-11-20T18:42:22.680Z,0.45
2022-11-20T18:47:30.398Z,0.31
2022-11-20T18:52:39.195Z,0.42
2022-11-20T18:57:43.093Z,0.51
2022-11-20T19:02:47.079Z,0.26
2022-11-20T19:07:52.599Z,0.40
2022-11-20T19:12:58.666Z,0.41
2022-11-20T19:18:03.077Z,0.54
2022-11-20T19:23:09.199Z,0.42
2022-11-20T19:28:13.837Z,0.20
2022-11-20T19:33:18.015Z,0.23
2022-11-20T19:38:23.091Z,0.57
2022-11-20T19:43:27.101Z,0.39
2022-11-20T19:48:32.340Z,0.56
2022-11-20T19:53:38.874Z,0.63
2022-11-20T19:58:43.624Z,0.54
2022-11-20T20:03:48.661Z,0.76
2022-11-20T20:08:58.453Z,0.78
2022-11-20T20:14:02.912Z,0.76
2022-11-20T20:19:07.249Z,0.79
2022-11-20T20:24:13.421Z,0.67
2022-11-20T20:29:20.567Z,0.83
2022-11-20T20:34:24.347Z,0.89
2022-11-20T20:39:29.794Z,1.08
2022-11-20T20:44:50.977Z,1.09
2022-11-20T20:49:54.675Z,1.24
2022-11-20T20:55:00.564Z,1.10
2022-11-20T21:00:05.929Z,1.37
2022-11-20T21:05:10.464Z,1.20
2022-11-20T21:10:22.470Z,1.39
2022-11-20T21:15:27.742Z,1.60
2022-11-20T21:20:49.061Z,1.47
2022-11-20T21:25:54.214Z,1.70
2022-11-20T21:31:05.401Z,1.54
2022-11-20T21:36:10.249Z,1.58
2022-11-20T21:41:16.403Z,1.64
2022-11-20T21:46:19.973Z,1.86
2022-11-20T21:51:25.247Z,1.72
2022-11-20T21:56:30.379Z,1.50
2022-11-20T22:01:34.066Z,2.02
2022-11-20T22:06:37.664Z,2.36
2022-11-20T22:11:42.704Z,2.47
2022-11-20T22:16:46.333Z,2.40
2022-11-20T22:21:51.215Z,2.57
2022-11-20T22:26:56.156Z,2.44
2022-11-20T22:31:59.717Z,2.54
2022-11-20T22:37:03.309Z,2.75
2022-11-20T22:42:08.188Z,2.69
2022-11-20T22:47:11.831Z,2.64
2022-11-20T22:52:15.655Z,2.61
2022-11-20T22:57:20.943Z,2.66
2022-11-20T23:02:24.544Z,2.70
2022-11-20T23:07:28.258Z,2.66
2022-11-20T23:12:33.503Z,2.61
2022-11-20T23:17:36.996Z,2.68
2022-11-20T23:22:40.597Z,2.63
2022-11-20T23:27:45.530Z,2.44
2022-11-20T23:32:49.043Z,2.60
2022-11-20T23:37:52.558Z,2.61
2022-11-20T23:43:14.962Z,2.77
2022-11-20T23:48:19.832Z,2.66
2022-11-20T23:53:24.893Z,2.95
2022-11-20T23:58:33.288Z,3.02
